sensor_id;sensor_type;location;lat;lon;timestamp;temperature;humidity
71942;DHT22;59997;53.300;-6.260;2022-08-19T00:01:23;13.24;77.52
71942;DHT22;59997;53.300;-6.260;2022-08-19T00:03:50;13.27;77.31
71942;DHT22;59997;53.300;-6.260;2022-08-19T00:06:16;13.20;77.71
71942;DHT22;59997;53.300;-6.260;2022-08-19T00:08:42;13.27;77.88
71942;DHT22;59997;53.300;-6.260;2022-08-19T00:11:08;13.28;78.05
71942;DHT22;59997;53.300;-6.260;2022-08-19T00:13:35;13.27;78.39
71942;DHT22;59997;53.300;-6.260;2022-08-19T00:16:01;13.39;78.17
71942;DHT22;59997;53.300;-6.260;2022-08-19T00:18:28;13.33;78.73
71942;DHT22;59997;53.300;-6.260;2022-08-19T00:20:54;13.24;79.20
71942;DHT22;59997;53.300;-6.260;2022-08-19T00:23:21;13.30;79.13
71942;DHT22;59997;53.300;-6.260;2022-08-19T00:25:46;13.26;79.57
71942;DHT22;59997;53.300;-6.260;2022-08-19T00:28:12;13.20;79.89
71942;DHT22;59997;53.300;-6.260;2022-08-19T00:30:39;13.24;80.30
71942;DHT22;59997;53.300;-6.260;2022-08-19T00:33:06;13.39;79.86
71942;DHT22;59997;53.300;-6.260;2022-08-19T00:35:34;13.33;80.25
71942;DHT22;59997;53.300;-6.260;2022-08-19T00:37:59;13.24;80.82
71942;DHT22;59997;53.300;-6.260;2022-08-19T00:40:26;13.20;80.87
71942;DHT22;59997;53.300;-6.260;2022-08-19T00:42:51;13.16;80.99
71942;DHT22;59997;53.300;-6.260;2022-08-19T00:45:22;13.20;81.09
71942;DHT22;59997;53.300;-6.260;2022-08-19T00:47:48;13.13;81.07
71942;DHT22;59997;53.300;-6.260;2022-08-19T00:50:17;13.12;81.11
71942;DHT22;59997;53.300;-6.260;2022-08-19T00:52:47;13.17;80.65
71942;DHT22;59997;53.300;-6.260;2022-08-19T00:55:19;13.33;79.71
71942;DHT22;59997;53.300;-6.260;2022-08-19T00:57:53;13.43;79.32
71942;DHT22;59997;53.300;-6.260;2022-08-19T01:00:23;13.37;79.99
71942;DHT22;59997;53.300;-6.260;2022-08-19T01:02:49;13.23;80.40
71942;DHT22;59997;53.300;-6.260;2022-08-19T01:05:24;13.12;81.19
71942;DHT22;59997;53.300;-6.260;2022-08-19T01:07:54;13.08;81.33
71942;DHT22;59997;53.300;-6.260;2022-08-19T01:10:26;13.09;81.32
71942;DHT22;59997;53.300;-6.260;2022-08-19T01:12:54;13.08;81.46
71942;DHT22;59997;53.300;-6.260;2022-08-19T01:15:29;12.96;81.73
71942;DHT22;59997;53.300;-6.260;2022-08-19T01:17:55;12.92;82.10
71942;DHT22;59997;53.300;-6.260;2022-08-19T01:20:23;12.92;82.23
71942;DHT22;59997;53.300;-6.260;2022-08-19T01:22:52;12.91;82.43
71942;DHT22;59997;53.300;-6.260;2022-08-19T01:25:22;12.99;82.05
71942;DHT22;59997;53.300;-6.260;2022-08-19T01:27:49;13.09;81.93
71942;DHT22;59997;53.300;-6.260;2022-08-19T01:30:29;12.99;82.20
71942;DHT22;59997;53.300;-6.260;2022-08-19T01:32:56;13.00;82.24
71942;DHT22;59997;53.300;-6.260;2022-08-19T01:35:24;12.99;82.25
71942;DHT22;59997;53.300;-6.260;2022-08-19T01:37:54;12.98;82.47
71942;DHT22;59997;53.300;-6.260;2022-08-19T01:40:23;12.96;82.39
71942;DHT22;59997;53.300;-6.260;2022-08-19T01:42:49;12.95;82.38
71942;DHT22;59997;53.300;-6.260;2022-08-19T01:45:18;13.02;82.27
71942;DHT22;59997;53.300;-6.260;2022-08-19T01:47:43;13.05;82.18
71942;DHT22;59997;53.300;-6.260;2022-08-19T01:50:11;13.10;82.00
71942;DHT22;59997;53.300;-6.260;2022-08-19T01:52:39;13.09;81.82
71942;DHT22;59997;53.300;-6.260;2022-08-19T01:55:08;13.23;81.62
71942;DHT22;59997;53.300;-6.260;2022-08-19T01:57:34;13.27;80.92
71942;DHT22;59997;53.300;-6.260;2022-08-19T02:00:00;13.23;81.06
71942;DHT22;59997;53.300;-6.260;2022-08-19T02:02:28;13.28;81.02
71942;DHT22;59997;53.300;-6.260;2022-08-19T02:04:54;13.30;80.78
71942;DHT22;59997;53.300;-6.260;2022-08-19T02:07:20;13.36;80.58
71942;DHT22;59997;53.300;-6.260;2022-08-19T02:09:48;13.33;80.78
71942;DHT22;59997;53.300;-6.260;2022-08-19T02:12:14;13.34;80.69
71942;DHT22;59997;53.300;-6.260;2022-08-19T02:14:41;13.36;80.70
71942;DHT22;59997;53.300;-6.260;2022-08-19T02:17:08;13.33;80.74
71942;DHT22;59997;53.300;-6.260;2022-08-19T02:19:34;13.34;80.81
71942;DHT22;59997;53.300;-6.260;2022-08-19T02:22:00;13.34;80.85
71942;DHT22;59997;53.300;-6.260;2022-08-19T02:24:27;13.28;81.08
71942;DHT22;59997;53.300;-6.260;2022-08-19T02:26:53;13.19;81.46
71942;DHT22;59997;53.300;-6.260;2022-08-19T02:29:19;13.09;81.91
71942;DHT22;59997;53.300;-6.260;2022-08-19T02:31:45;12.98;82.38
71942;DHT22;59997;53.300;-6.260;2022-08-19T02:34:10;12.99;82.55
71942;DHT22;59997;53.300;-6.260;2022-08-19T02:36:37;13.02;82.68
71942;DHT22;59997;53.300;-6.260;2022-08-19T02:39:03;13.05;82.89
71942;DHT22;59997;53.300;-6.260;2022-08-19T02:41:32;13.00;83.00
71942;DHT22;59997;53.300;-6.260;2022-08-19T02:43:59;12.95;83.26
71942;DHT22;59997;53.300;-6.260;2022-08-19T02:46:28;12.91;83.14
71942;DHT22;59997;53.300;-6.260;2022-08-19T02:48:57;12.88;83.05
71942;DHT22;59997;53.300;-6.260;2022-08-19T02:51:26;12.78;83.43
71942;DHT22;59997;53.300;-6.260;2022-08-19T02:53:54;12.74;83.78
71942;DHT22;59997;53.300;-6.260;2022-08-19T02:56:20;12.65;84.09
71942;DHT22;59997;53.300;-6.260;2022-08-19T02:58:46;12.61;84.32
71942;DHT22;59997;53.300;-6.260;2022-08-19T03:01:28;12.60;84.30
71942;DHT22;59997;53.300;-6.260;2022-08-19T03:03:56;12.53;84.62
71942;DHT22;59997;53.300;-6.260;2022-08-19T03:06:23;12.61;84.56
71942;DHT22;59997;53.300;-6.260;2022-08-19T03:08:49;12.58;84.47
71942;DHT22;59997;53.300;-6.260;2022-08-19T03:13:46;12.75;83.68
71942;DHT22;59997;53.300;-6.260;2022-08-19T03:16:14;12.68;83.97
71942;DHT22;59997;53.300;-6.260;2022-08-19T03:18:41;12.61;84.32
71942;DHT22;59997;53.300;-6.260;2022-08-19T03:21:08;12.63;84.14
71942;DHT22;59997;53.300;-6.260;2022-08-19T03:23:34;12.67;83.99
71942;DHT22;59997;53.300;-6.260;2022-08-19T03:26:04;12.60;84.30
71942;DHT22;59997;53.300;-6.260;2022-08-19T03:28:31;12.57;84.30
71942;DHT22;59997;53.300;-6.260;2022-08-19T03:31:02;12.63;84.09
71942;DHT22;59997;53.300;-6.260;2022-08-19T03:33:29;12.60;84.14
71942;DHT22;59997;53.300;-6.260;2022-08-19T03:36:10;12.58;84.21
71942;DHT22;59997;53.300;-6.260;2022-08-19T03:38:37;12.53;84.44
71942;DHT22;59997;53.300;-6.260;2022-08-19T03:41:06;12.53;84.64
71942;DHT22;59997;53.300;-6.260;2022-08-19T03:43:35;12.57;84.54
71942;DHT22;59997;53.300;-6.260;2022-08-19T03:46:04;12.56;84.62
71942;DHT22;59997;53.300;-6.260;2022-08-19T03:48:32;12.58;84.45
71942;DHT22;59997;53.300;-6.260;2022-08-19T03:50:58;12.61;84.46
71942;DHT22;59997;53.300;-6.260;2022-08-19T03:53:25;12.64;84.48
71942;DHT22;59997;53.300;-6.260;2022-08-19T03:55:52;12.58;84.73
71942;DHT22;59997;53.300;-6.260;2022-08-19T03:58:18;12.54;84.71
71942;DHT22;59997;53.300;-6.260;2022-08-19T04:00:44;12.61;84.57
71942;DHT22;59997;53.300;-6.260;2022-08-19T04:03:10;12.77;84.27
71942;DHT22;59997;53.300;-6.260;2022-08-19T04:05:36;12.75;84.31
71942;DHT22;59997;53.300;-6.260;2022-08-19T04:08:03;12.71;84.43
71942;DHT22;59997;53.300;-6.260;2022-08-19T04:10:31;12.73;84.46
71942;DHT22;59997;53.300;-6.260;2022-08-19T04:13:00;12.63;84.67
71942;DHT22;59997;53.300;-6.260;2022-08-19T04:15:26;12.58;85.09
71942;DHT22;59997;53.300;-6.260;2022-08-19T04:17:54;12.54;85.00
71942;DHT22;59997;53.300;-6.260;2022-08-19T04:20:20;12.67;84.60
71942;DHT22;59997;53.300;-6.260;2022-08-19T04:22:46;12.73;84.14
71942;DHT22;59997;53.300;-6.260;2022-08-19T04:25:11;12.60;84.63
71942;DHT22;59997;53.300;-6.260;2022-08-19T04:27:37;12.41;85.25
71942;DHT22;59997;53.300;-6.260;2022-08-19T04:30:04;12.47;85.22
71942;DHT22;59997;53.300;-6.260;2022-08-19T04:32:29;12.47;85.21
71942;DHT22;59997;53.300;-6.260;2022-08-19T04:34:57;12.56;84.83
71942;DHT22;59997;53.300;-6.260;2022-08-19T04:37:25;12.67;84.44
71942;DHT22;59997;53.300;-6.260;2022-08-19T04:39:52;12.63;84.63
71942;DHT22;59997;53.300;-6.260;2022-08-19T04:42:35;12.60;84.60
71942;DHT22;59997;53.300;-6.260;2022-08-19T04:45:11;12.50;84.97
71942;DHT22;59997;53.300;-6.260;2022-08-19T04:47:38;12.43;85.26
71942;DHT22;59997;53.300;-6.260;2022-08-19T04:50:05;12.41;85.31
71942;DHT22;59997;53.300;-6.260;2022-08-19T04:52:31;12.37;85.64
71942;DHT22;59997;53.300;-6.260;2022-08-19T04:54:58;12.36;85.45
71942;DHT22;59997;53.300;-6.260;2022-08-19T04:57:23;12.39;85.26
71942;DHT22;59997;53.300;-6.260;2022-08-19T04:59:54;12.36;85.40
71942;DHT22;59997;53.300;-6.260;2022-08-19T05:02:23;12.34;85.22
71942;DHT22;59997;53.300;-6.260;2022-08-19T05:04:56;12.39;85.17
71942;DHT22;59997;53.300;-6.260;2022-08-19T05:07:24;12.43;84.82
71942;DHT22;59997;53.300;-6.260;2022-08-19T05:09:49;12.34;85.16
71942;DHT22;59997;53.300;-6.260;2022-08-19T05:12:16;12.30;85.21
71942;DHT22;59997;53.300;-6.260;2022-08-19T05:14:43;12.32;85.26
71942;DHT22;59997;53.300;-6.260;2022-08-19T05:17:10;12.25;85.46
71942;DHT22;59997;53.300;-6.260;2022-08-19T05:19:41;12.21;85.65
71942;DHT22;59997;53.300;-6.260;2022-08-19T05:22:25;12.22;85.81
71942;DHT22;59997;53.300;-6.260;2022-08-19T05:25:12;12.22;85.83
71942;DHT22;59997;53.300;-6.260;2022-08-19T05:27:39;12.25;86.07
71942;DHT22;59997;53.300;-6.260;2022-08-19T05:30:07;12.26;86.07
71942;DHT22;59997;53.300;-6.260;2022-08-19T05:32:34;12.37;85.83
71942;DHT22;59997;53.300;-6.260;2022-08-19T05:35:02;12.37;85.65
71942;DHT22;59997;53.300;-6.260;2022-08-19T05:37:28;12.46;85.38
71942;DHT22;59997;53.300;-6.260;2022-08-19T05:39:55;12.49;85.43
71942;DHT22;59997;53.300;-6.260;2022-08-19T05:42:22;12.46;85.44
71942;DHT22;59997;53.300;-6.260;2022-08-19T05:44:49;12.46;85.47
71942;DHT22;59997;53.300;-6.260;2022-08-19T05:47:16;12.36;85.94
71942;DHT22;59997;53.300;-6.260;2022-08-19T05:49:44;12.39;85.90
71942;DHT22;59997;53.300;-6.260;2022-08-19T05:52:12;12.40;86.03
71942;DHT22;59997;53.300;-6.260;2022-08-19T05:54:39;12.40;86.00
71942;DHT22;59997;53.300;-6.260;2022-08-19T05:57:07;12.44;85.88
71942;DHT22;59997;53.300;-6.260;2022-08-19T05:59:33;12.41;85.91
71942;DHT22;59997;53.300;-6.260;2022-08-19T06:02:01;12.47;85.80
71942;DHT22;59997;53.300;-6.260;2022-08-19T06:04:29;12.56;85.44
71942;DHT22;59997;53.300;-6.260;2022-08-19T06:06:55;12.60;85.17
71942;DHT22;59997;53.300;-6.260;2022-08-19T06:09:22;12.68;85.12
71942;DHT22;59997;53.300;-6.260;2022-08-19T06:11:54;12.78;84.41
71942;DHT22;59997;53.300;-6.260;2022-08-19T06:14:25;12.82;84.37
71942;DHT22;59997;53.300;-6.260;2022-08-19T06:16:51;12.89;84.24
71942;DHT22;59997;53.300;-6.260;2022-08-19T06:19:23;12.96;83.76
71942;DHT22;59997;53.300;-6.260;2022-08-19T06:21:52;13.08;83.48
71942;DHT22;59997;53.300;-6.260;2022-08-19T06:24:20;13.15;83.32
71942;DHT22;59997;53.300;-6.260;2022-08-19T06:26:48;13.16;83.10
71942;DHT22;59997;53.300;-6.260;2022-08-19T06:29:17;13.17;83.20
71942;DHT22;59997;53.300;-6.260;2022-08-19T06:31:47;13.17;83.48
71942;DHT22;59997;53.300;-6.260;2022-08-19T06:34:16;13.55;82.42
71942;DHT22;59997;53.300;-6.260;2022-08-19T06:36:45;13.90;80.88
71942;DHT22;59997;53.300;-6.260;2022-08-19T06:39:15;13.61;81.86
71942;DHT22;59997;53.300;-6.260;2022-08-19T06:41:44;13.43;82.63
71942;DHT22;59997;53.300;-6.260;2022-08-19T06:44:11;13.62;82.73
71942;DHT22;59997;53.300;-6.260;2022-08-19T06:46:39;14.03;80.58
71942;DHT22;59997;53.300;-6.260;2022-08-19T06:49:05;14.08;80.12
71942;DHT22;59997;53.300;-6.260;2022-08-19T06:51:34;13.96;80.55
71942;DHT22;59997;53.300;-6.260;2022-08-19T06:53:59;13.89;80.74
71942;DHT22;59997;53.300;-6.260;2022-08-19T06:56:28;13.90;80.50
71942;DHT22;59997;53.300;-6.260;2022-08-19T06:59:08;13.89;80.71
71942;DHT22;59997;53.300;-6.260;2022-08-19T07:01:43;13.89;80.91
71942;DHT22;59997;53.300;-6.260;2022-08-19T07:04:11;13.95;80.75
71942;DHT22;59997;53.300;-6.260;2022-08-19T07:06:37;13.99;80.10
71942;DHT22;59997;53.300;-6.260;2022-08-19T07:09:05;14.05;80.37
71942;DHT22;59997;53.300;-6.260;2022-08-19T07:11:31;14.13;80.11
71942;DHT22;59997;53.300;-6.260;2022-08-19T07:13:59;14.27;78.83
71942;DHT22;59997;53.300;-6.260;2022-08-19T07:16:27;14.42;78.68
71942;DHT22;59997;53.300;-6.260;2022-08-19T07:18:54;14.99;77.06
71942;DHT22;59997;53.300;-6.260;2022-08-19T07:21:23;15.35;75.36
71942;DHT22;59997;53.300;-6.260;2022-08-19T07:23:51;15.23;75.48
71942;DHT22;59997;53.300;-6.260;2022-08-19T07:26:27;15.13;75.98
71942;DHT22;59997;53.300;-6.260;2022-08-19T07:28:56;15.21;75.82
71942;DHT22;59997;53.300;-6.260;2022-08-19T07:31:25;15.28;76.02
71942;DHT22;59997;53.300;-6.260;2022-08-19T07:33:53;15.14;76.08
71942;DHT22;59997;53.300;-6.260;2022-08-19T07:36:27;15.45;75.40
71942;DHT22;59997;53.300;-6.260;2022-08-19T07:39:00;15.69;74.67
71942;DHT22;59997;53.300;-6.260;2022-08-19T07:41:27;15.89;74.38
71942;DHT22;59997;53.300;-6.260;2022-08-19T07:43:58;16.01;73.12
71942;DHT22;59997;53.300;-6.260;2022-08-19T07:46:37;16.14;72.32
71942;DHT22;59997;53.300;-6.260;2022-08-19T07:49:04;15.96;72.86
71942;DHT22;59997;53.300;-6.260;2022-08-19T07:51:31;15.92;73.39
71942;DHT22;59997;53.300;-6.260;2022-08-19T07:53:57;15.99;73.37
71942;DHT22;59997;53.300;-6.260;2022-08-19T07:56:23;16.04;74.04
71942;DHT22;59997;53.300;-6.260;2022-08-19T07:58:51;15.99;73.70
71942;DHT22;59997;53.300;-6.260;2022-08-19T08:01:21;16.24;73.85
71942;DHT22;59997;53.300;-6.260;2022-08-19T08:03:48;16.51;73.39
71942;DHT22;59997;53.300;-6.260;2022-08-19T08:06:34;16.65;71.83
71942;DHT22;59997;53.300;-6.260;2022-08-19T08:09:22;16.77;70.69
71942;DHT22;59997;53.300;-6.260;2022-08-19T08:11:55;17.17;70.67
71942;DHT22;59997;53.300;-6.260;2022-08-19T08:14:30;17.46;67.95
71942;DHT22;59997;53.300;-6.260;2022-08-19T08:16:56;17.70;66.22
71942;DHT22;59997;53.300;-6.260;2022-08-19T08:19:23;17.80;65.96
71942;DHT22;59997;53.300;-6.260;2022-08-19T08:21:51;17.88;66.81
71942;DHT22;59997;53.300;-6.260;2022-08-19T08:24:17;17.91;66.70
71942;DHT22;59997;53.300;-6.260;2022-08-19T08:26:43;18.57;64.18
71942;DHT22;59997;53.300;-6.260;2022-08-19T08:29:10;19.25;62.03
71942;DHT22;59997;53.300;-6.260;2022-08-19T08:31:37;19.27;61.78
71942;DHT22;59997;53.300;-6.260;2022-08-19T08:34:03;19.56;61.84
71942;DHT22;59997;53.300;-6.260;2022-08-19T08:36:29;19.42;61.50
71942;DHT22;59997;53.300;-6.260;2022-08-19T08:38:54;19.84;60.69
71942;DHT22;59997;53.300;-6.260;2022-08-19T08:41:51;19.94;59.79
71942;DHT22;59997;53.300;-6.260;2022-08-19T08:44:27;19.96;59.83
71942;DHT22;59997;53.300;-6.260;2022-08-19T08:47:02;19.70;60.31
71942;DHT22;59997;53.300;-6.260;2022-08-19T08:49:54;19.50;61.19
71942;DHT22;59997;53.300;-6.260;2022-08-19T08:52:31;19.50;60.13
71942;DHT22;59997;53.300;-6.260;2022-08-19T08:55:12;20.19;58.49
71942;DHT22;59997;53.300;-6.260;2022-08-19T08:57:55;19.73;57.99
71942;DHT22;59997;53.300;-6.260;2022-08-19T09:00:33;20.85;55.56
71942;DHT22;59997;53.300;-6.260;2022-08-19T09:03:01;20.13;58.61
71942;DHT22;59997;53.300;-6.260;2022-08-19T09:08:10;20.77;56.34
71942;DHT22;59997;53.300;-6.260;2022-08-19T09:10:44;21.27;55.74
71942;DHT22;59997;53.300;-6.260;2022-08-19T09:16:18;22.71;53.17
71942;DHT22;59997;53.300;-6.260;2022-08-19T09:18:51;22.76;51.82
71942;DHT22;59997;53.300;-6.260;2022-08-19T09:21:26;22.34;53.68
71942;DHT22;59997;53.300;-6.260;2022-08-19T09:23:53;21.79;52.90
71942;DHT22;59997;53.300;-6.260;2022-08-19T09:26:21;22.03;53.43
71942;DHT22;59997;53.300;-6.260;2022-08-19T09:28:50;22.65;52.63
71942;DHT22;59997;53.300;-6.260;2022-08-19T09:31:19;22.85;51.44
71942;DHT22;59997;53.300;-6.260;2022-08-19T09:33:46;22.84;50.84
71942;DHT22;59997;53.300;-6.260;2022-08-19T09:36:14;23.83;50.47
71942;DHT22;59997;53.300;-6.260;2022-08-19T09:38:40;24.34;49.73
71942;DHT22;59997;53.300;-6.260;2022-08-19T09:41:10;23.50;49.29
71942;DHT22;59997;53.300;-6.260;2022-08-19T09:43:37;23.62;47.69
71942;DHT22;59997;53.300;-6.260;2022-08-19T09:46:06;23.33;48.17
71942;DHT22;59997;53.300;-6.260;2022-08-19T09:48:33;23.85;47.92
71942;DHT22;59997;53.300;-6.260;2022-08-19T09:51:10;23.16;48.20
71942;DHT22;59997;53.300;-6.260;2022-08-19T09:53:38;22.07;50.01
71942;DHT22;59997;53.300;-6.260;2022-08-19T09:56:05;21.53;52.35
71942;DHT22;59997;53.300;-6.260;2022-08-19T09:58:35;20.33;55.61
71942;DHT22;59997;53.300;-6.260;2022-08-19T10:01:04;20.01;55.53
71942;DHT22;59997;53.300;-6.260;2022-08-19T10:03:32;19.51;58.08
71942;DHT22;59997;53.300;-6.260;2022-08-19T10:06:00;18.84;60.00
71942;DHT22;59997;53.300;-6.260;2022-08-19T10:08:32;18.24;60.67
71942;DHT22;59997;53.300;-6.260;2022-08-19T10:10:58;18.18;62.60
71942;DHT22;59997;53.300;-6.260;2022-08-19T10:13:27;18.04;62.61
71942;DHT22;59997;53.300;-6.260;2022-08-19T10:15:56;18.15;63.60
71942;DHT22;59997;53.300;-6.260;2022-08-19T10:18:24;18.08;63.04
71942;DHT22;59997;53.300;-6.260;2022-08-19T10:20:51;18.15;63.80
71942;DHT22;59997;53.300;-6.260;2022-08-19T10:23:20;18.42;64.08
71942;DHT22;59997;53.300;-6.260;2022-08-19T10:25:46;18.68;61.99
71942;DHT22;59997;53.300;-6.260;2022-08-19T10:28:13;18.31;63.64
71942;DHT22;59997;53.300;-6.260;2022-08-19T10:30:39;18.07;64.24
71942;DHT22;59997;53.300;-6.260;2022-08-19T10:33:06;17.96;65.41
71942;DHT22;59997;53.300;-6.260;2022-08-19T10:35:32;17.77;65.33
71942;DHT22;59997;53.300;-6.260;2022-08-19T10:37:59;17.70;63.74
71942;DHT22;59997;53.300;-6.260;2022-08-19T10:40:27;17.77;62.77
71942;DHT22;59997;53.300;-6.260;2022-08-19T10:42:54;17.72;61.67
71942;DHT22;59997;53.300;-6.260;2022-08-19T10:45:22;17.86;61.54
71942;DHT22;59997;53.300;-6.260;2022-08-19T10:47:50;17.97;61.24
71942;DHT22;59997;53.300;-6.260;2022-08-19T10:50:17;17.93;60.76
71942;DHT22;59997;53.300;-6.260;2022-08-19T10:53:04;17.93;61.64
71942;DHT22;59997;53.300;-6.260;2022-08-19T10:55:31;18.08;62.81
71942;DHT22;59997;53.300;-6.260;2022-08-19T10:58:18;18.16;62.32
71942;DHT22;59997;53.300;-6.260;2022-08-19T11:00:57;17.88;62.20
71942;DHT22;59997;53.300;-6.260;2022-08-19T11:03:25;17.63;63.58
71942;DHT22;59997;53.300;-6.260;2022-08-19T11:06:03;17.53;63.91
71942;DHT22;59997;53.300;-6.260;2022-08-19T11:08:31;17.59;63.74
71942;DHT22;59997;53.300;-6.260;2022-08-19T11:11:00;17.59;64.19
71942;DHT22;59997;53.300;-6.260;2022-08-19T11:13:27;17.50;63.57
71942;DHT22;59997;53.300;-6.260;2022-08-19T11:16:16;17.83;63.26
71942;DHT22;59997;53.300;-6.260;2022-08-19T11:18:47;19.82;59.58
71942;DHT22;59997;53.300;-6.260;2022-08-19T11:21:17;21.36;55.17
71942;DHT22;59997;53.300;-6.260;2022-08-19T11:23:45;21.81;52.09
71942;DHT22;59997;53.300;-6.260;2022-08-19T11:26:13;21.78;52.18
71942;DHT22;59997;53.300;-6.260;2022-08-19T11:28:40;21.77;51.88
71942;DHT22;59997;53.300;-6.260;2022-08-19T11:31:17;21.77;53.30
71942;DHT22;59997;53.300;-6.260;2022-08-19T11:33:43;21.85;51.63
71942;DHT22;59997;53.300;-6.260;2022-08-19T11:36:09;21.68;54.76
71942;DHT22;59997;53.300;-6.260;2022-08-19T11:38:36;21.92;53.93
71942;DHT22;59997;53.300;-6.260;2022-08-19T11:41:04;22.48;51.42
71942;DHT22;59997;53.300;-6.260;2022-08-19T11:43:30;23.02;51.12
71942;DHT22;59997;53.300;-6.260;2022-08-19T11:45:57;23.45;49.79
71942;DHT22;59997;53.300;-6.260;2022-08-19T11:48:24;23.27;49.11
71942;DHT22;59997;53.300;-6.260;2022-08-19T11:50:51;23.28;50.13
71942;DHT22;59997;53.300;-6.260;2022-08-19T11:53:19;23.20;49.33
71942;DHT22;59997;53.300;-6.260;2022-08-19T11:55:49;23.89;49.70
71942;DHT22;59997;53.300;-6.260;2022-08-19T11:58:16;23.17;49.73
71942;DHT22;59997;53.300;-6.260;2022-08-19T12:00:43;22.81;49.35
71942;DHT22;59997;53.300;-6.260;2022-08-19T12:03:12;22.48;50.23
71942;DHT22;59997;53.300;-6.260;2022-08-19T12:05:39;21.54;51.46
71942;DHT22;59997;53.300;-6.260;2022-08-19T12:08:05;21.68;52.76
71942;DHT22;59997;53.300;-6.260;2022-08-19T12:10:31;21.58;52.58
71942;DHT22;59997;53.300;-6.260;2022-08-19T12:12:57;22.30;50.67
71942;DHT22;59997;53.300;-6.260;2022-08-19T12:15:26;22.98;51.13
71942;DHT22;59997;53.300;-6.260;2022-08-19T12:17:53;22.84;47.67
71942;DHT22;59997;53.300;-6.260;2022-08-19T12:20:23;22.58;48.14
71942;DHT22;59997;53.300;-6.260;2022-08-19T12:22:50;22.78;49.67
71942;DHT22;59997;53.300;-6.260;2022-08-19T12:25:17;23.45;46.75
71942;DHT22;59997;53.300;-6.260;2022-08-19T12:27:43;23.51;48.23
71942;DHT22;59997;53.300;-6.260;2022-08-19T12:30:11;24.09;47.47
71942;DHT22;59997;53.300;-6.260;2022-08-19T12:32:38;24.00;46.64
71942;DHT22;59997;53.300;-6.260;2022-08-19T12:35:05;22.51;49.55
71942;DHT22;59997;53.300;-6.260;2022-08-19T12:37:31;21.26;51.91
71942;DHT22;59997;53.300;-6.260;2022-08-19T12:39:58;20.50;53.88
71942;DHT22;59997;53.300;-6.260;2022-08-19T12:42:24;20.40;55.26
71942;DHT22;59997;53.300;-6.260;2022-08-19T12:44:49;20.46;53.60
71942;DHT22;59997;53.300;-6.260;2022-08-19T12:47:18;20.58;52.95
71942;DHT22;59997;53.300;-6.260;2022-08-19T12:49:44;21.00;52.85
71942;DHT22;59997;53.300;-6.260;2022-08-19T12:52:13;21.22;50.33
71942;DHT22;59997;53.300;-6.260;2022-08-19T12:54:42;22.23;48.64
71942;DHT22;59997;53.300;-6.260;2022-08-19T12:57:12;22.43;50.40
71942;DHT22;59997;53.300;-6.260;2022-08-19T12:59:38;22.71;47.86
71942;DHT22;59997;53.300;-6.260;2022-08-19T13:02:05;22.62;47.32
71942;DHT22;59997;53.300;-6.260;2022-08-19T13:04:34;22.36;49.09
71942;DHT22;59997;53.300;-6.260;2022-08-19T13:07:02;22.36;50.02
71942;DHT22;59997;53.300;-6.260;2022-08-19T13:09:28;22.05;50.89
71942;DHT22;59997;53.300;-6.260;2022-08-19T13:11:54;21.92;52.31
71942;DHT22;59997;53.300;-6.260;2022-08-19T13:14:20;21.85;51.68
71942;DHT22;59997;53.300;-6.260;2022-08-19T13:16:46;21.41;52.32
71942;DHT22;59997;53.300;-6.260;2022-08-19T13:19:12;21.05;51.72
71942;DHT22;59997;53.300;-6.260;2022-08-19T13:21:39;21.18;51.23
71942;DHT22;59997;53.300;-6.260;2022-08-19T13:24:06;21.37;51.22
71942;DHT22;59997;53.300;-6.260;2022-08-19T13:26:32;21.33;51.78
71942;DHT22;59997;53.300;-6.260;2022-08-19T13:28:59;21.79;50.63
71942;DHT22;59997;53.300;-6.260;2022-08-19T13:31:43;22.44;50.32
71942;DHT22;59997;53.300;-6.260;2022-08-19T13:34:31;22.72;49.16
71942;DHT22;59997;53.300;-6.260;2022-08-19T13:36:59;22.93;47.28
71942;DHT22;59997;53.300;-6.260;2022-08-19T13:39:26;22.82;47.42
71942;DHT22;59997;53.300;-6.260;2022-08-19T13:41:54;22.95;48.40
71942;DHT22;59997;53.300;-6.260;2022-08-19T13:44:19;23.38;46.83
71942;DHT22;59997;53.300;-6.260;2022-08-19T13:46:46;23.13;48.94
71942;DHT22;59997;53.300;-6.260;2022-08-19T13:49:14;23.33;47.34
71942;DHT22;59997;53.300;-6.260;2022-08-19T13:51:41;23.23;47.31
71942;DHT22;59997;53.300;-6.260;2022-08-19T13:54:08;23.10;48.70
71942;DHT22;59997;53.300;-6.260;2022-08-19T13:56:35;22.39;49.33
71942;DHT22;59997;53.300;-6.260;2022-08-19T13:59:02;21.79;50.36
71942;DHT22;59997;53.300;-6.260;2022-08-19T14:01:27;21.95;49.40
71942;DHT22;59997;53.300;-6.260;2022-08-19T14:03:55;22.03;50.43
71942;DHT22;59997;53.300;-6.260;2022-08-19T14:06:21;21.96;49.67
71942;DHT22;59997;53.300;-6.260;2022-08-19T14:08:51;21.59;50.04
71942;DHT22;59997;53.300;-6.260;2022-08-19T14:11:19;22.91;50.12
71942;DHT22;59997;53.300;-6.260;2022-08-19T14:13:44;22.50;49.58
71942;DHT22;59997;53.300;-6.260;2022-08-19T14:16:12;23.45;46.87
71942;DHT22;59997;53.300;-6.260;2022-08-19T14:18:39;23.50;47.54
71942;DHT22;59997;53.300;-6.260;2022-08-19T14:21:05;22.55;48.78
71942;DHT22;59997;53.300;-6.260;2022-08-19T14:23:32;22.78;49.62
71942;DHT22;59997;53.300;-6.260;2022-08-19T14:26:12;22.17;49.64
71942;DHT22;59997;53.300;-6.260;2022-08-19T14:28:39;21.75;50.41
71942;DHT22;59997;53.300;-6.260;2022-08-19T14:31:12;21.16;53.32
71942;DHT22;59997;53.300;-6.260;2022-08-19T14:33:42;20.70;54.12
71942;DHT22;59997;53.300;-6.260;2022-08-19T14:36:09;20.44;55.23
71942;DHT22;59997;53.300;-6.260;2022-08-19T14:38:36;20.20;56.37
71942;DHT22;59997;53.300;-6.260;2022-08-19T14:41:15;19.81;60.36
71942;DHT22;59997;53.300;-6.260;2022-08-19T14:43:44;18.71;66.94
71942;DHT22;59997;53.300;-6.260;2022-08-19T14:46:14;18.05;71.16
71942;DHT22;59997;53.300;-6.260;2022-08-19T14:48:41;18.01;72.70
71942;DHT22;59997;53.300;-6.260;2022-08-19T14:51:07;17.86;71.30
71942;DHT22;59997;53.300;-6.260;2022-08-19T14:53:35;17.77;71.94
71942;DHT22;59997;53.300;-6.260;2022-08-19T14:56:01;17.57;74.64
71942;DHT22;59997;53.300;-6.260;2022-08-19T14:58:28;16.86;80.77
71942;DHT22;59997;53.300;-6.260;2022-08-19T15:00:54;16.45;82.69
71942;DHT22;59997;53.300;-6.260;2022-08-19T15:03:20;16.44;83.05
71942;DHT22;59997;53.300;-6.260;2022-08-19T15:05:45;16.63;81.82
71942;DHT22;59997;53.300;-6.260;2022-08-19T15:08:12;17.34;79.71
71942;DHT22;59997;53.300;-6.260;2022-08-19T15:10:38;18.05;78.79
71942;DHT22;59997;53.300;-6.260;2022-08-19T15:13:05;18.92;76.65
71942;DHT22;59997;53.300;-6.260;2022-08-19T15:15:31;18.75;78.35
71942;DHT22;59997;53.300;-6.260;2022-08-19T15:17:57;18.78;78.71
71942;DHT22;59997;53.300;-6.260;2022-08-19T15:20:28;18.57;77.47
71942;DHT22;59997;53.300;-6.260;2022-08-19T15:22:54;18.43;76.12
71942;DHT22;59997;53.300;-6.260;2022-08-19T15:25:21;18.31;77.94
71942;DHT22;59997;53.300;-6.260;2022-08-19T15:27:48;18.32;71.42
71942;DHT22;59997;53.300;-6.260;2022-08-19T15:30:24;18.48;76.76
71942;DHT22;59997;53.300;-6.260;2022-08-19T15:32:51;18.90;73.10